createdAt,value
2023-05-09T16:01:55.819Z,7.00
2023-05-09T16:03:27.917Z,7.60
2023-05-09T16:04:59.751Z,4.80
2023-05-09T16:06:33.301Z,7.60
2023-05-09T16:08:05.293Z,6.00
2023-05-09T16:09:37.466Z,7.80
2023-05-09T16:11:10.315Z,7.80
2023-05-09T16:12:42.278Z,2.00
2023-05-09T16:14:14.212Z,6.00
2023-05-09T16:15:48.102Z,8.00
2023-05-09T16:17:20.085Z,8.00
2023-05-09T16:18:52.071Z,8.00
2023-05-09T16:20:23.961Z,8.80
2023-05-09T16:21:55.889Z,10.40
2023-05-09T16:23:27.779Z,6.60
2023-05-09T16:24:59.655Z,7.20
2023-05-09T16:26:31.533Z,8.60
2023-05-09T16:28:03.553Z,6.60
2023-05-09T16:29:35.496Z,8.00
2023-05-09T16:31:08.694Z,7.00
2023-05-09T16:32:40.584Z,8.40
2023-05-09T16:34:12.546Z,7.40
2023-05-09T16:35:44.681Z,5.80
2023-05-09T16:37:19.057Z,10.80
2023-05-09T16:38:50.988Z,7.80
2023-05-09T16:40:22.994Z,5.40
2023-05-09T16:41:55.682Z,8.20
2023-05-09T16:43:27.653Z,7.40
2023-05-09T16:44:59.554Z,5.80
2023-05-09T16:46:31.516Z,9.20
2023-05-09T16:48:03.525Z,6.20
2023-05-09T16:49:35.438Z,7.00
2023-05-09T16:51:07.274Z,8.80
2023-05-09T16:52:39.156Z,8.00
2023-05-09T16:54:11.062Z,8.80
2023-05-09T16:55:42.983Z,7.20
2023-05-09T16:57:14.802Z,7.00
2023-05-09T16:58:47.194Z,6.00
2023-05-09T17:00:19.577Z,9.80
2023-05-09T17:01:52.498Z,6.20
2023-05-09T17:03:24.348Z,5.40
2023-05-09T17:04:56.472Z,7.00
2023-05-09T17:06:28.506Z,7.80
2023-05-09T17:08:00.445Z,7.00
2023-05-09T17:09:32.537Z,5.00
2023-05-09T17:11:05.576Z,8.00
2023-05-09T17:12:39.628Z,9.00
2023-05-09T17:14:11.482Z,6.80
2023-05-09T17:15:43.359Z,11.00
2023-05-09T17:17:17.725Z,17.00
2023-05-09T17:18:49.573Z,49.80
2023-05-09T17:20:21.532Z,67.50
2023-05-09T17:21:56.149Z,77.50
2023-05-09T17:23:27.972Z,80.75
2023-05-09T17:24:59.859Z,78.00
2023-05-09T17:26:31.794Z,80.50
2023-05-09T17:28:03.794Z,90.00
2023-05-09T17:29:36.445Z,117.75
2023-05-09T17:31:08.373Z,67.00
2023-05-09T17:32:42.485Z,95.80
2023-05-09T17:34:14.453Z,101.60
2023-05-09T17:35:49.578Z,109.00
2023-05-09T17:37:21.511Z,104.00
2023-05-09T17:38:53.571Z,107.80
2023-05-09T17:40:25.708Z,126.75
2023-05-09T17:41:57.710Z,94.60
2023-05-09T17:43:30.147Z,75.75
2023-05-09T17:45:02.038Z,79.50
2023-05-09T17:46:33.983Z,87.60
2023-05-09T17:48:06.077Z,105.20
2023-05-09T17:49:38.218Z,128.75
2023-05-09T17:51:10.105Z,111.80
2023-05-09T17:52:42.181Z,110.40
2023-05-09T17:54:14.464Z,123.50
2023-05-09T17:55:46.418Z,107.75
2023-05-09T17:57:18.282Z,130.75
2023-05-09T17:58:53.100Z,127.50
2023-05-09T18:00:25.118Z,124.50
2023-05-09T18:02:14.116Z,120.75
2023-05-09T18:03:46.226Z,126.75
2023-05-09T18:05:18.438Z,142.00
2023-05-09T18:06:50.312Z,136.50
2023-05-09T18:08:22.498Z,138.75
2023-05-09T18:09:54.650Z,156.75
2023-05-09T18:11:27.061Z,134.00
2023-05-09T18:12:58.993Z,130.25
2023-05-09T18:14:30.908Z,118.75
2023-05-09T18:16:02.979Z,135.50
2023-05-09T18:17:34.919Z,125.75
2023-05-09T18:19:06.941Z,124.00
2023-05-09T18:20:38.977Z,130.25
2023-05-09T18:22:10.958Z,116.50
2023-05-09T18:23:42.851Z,129.75
2023-05-09T18:25:14.808Z,118.25
2023-05-09T18:26:48.390Z,108.00
2023-05-09T18:28:24.660Z,113.75
2023-05-09T18:29:56.859Z,128.75
2023-05-09T18:31:28.793Z,109.50
2023-05-09T18:33:02.628Z,120.75
2023-05-09T18:34:34.539Z,123.25
2023-05-09T18:36:09.075Z,129.50
2023-05-09T18:37:42.072Z,141.25
2023-05-09T18:39:14.431Z,148.75
2023-05-09T18:40:46.740Z,154.00
2023-05-09T18:42:18.644Z,142.50
2023-05-09T18:43:50.545Z,136.00
2023-05-09T18:45:22.576Z,122.00
2023-05-09T18:46:54.629Z,120.25
2023-05-09T18:48:26.604Z,109.00
2023-05-09T18:50:00.997Z,102.20
2023-05-09T18:51:35.980Z,94.40
2023-05-09T18:53:07.888Z,87.80
2023-05-09T18:54:41.251Z,91.25
2023-05-09T18:56:13.358Z,77.50
2023-05-09T18:57:45.668Z,77.75
2023-05-09T18:59:17.995Z,79.25
2023-05-09T19:00:49.887Z,74.50
2023-05-09T19:02:22.626Z,72.50
2023-05-09T19:03:55.261Z,65.25
2023-05-09T19:05:27.652Z,64.50
2023-05-09T19:06:59.863Z,64.00
2023-05-09T19:08:31.739Z,58.40
2023-05-09T19:10:08.496Z,60.20
2023-05-09T19:11:40.390Z,60.80
2023-05-09T19:13:14.737Z,57.60
2023-05-09T19:14:48.313Z,50.80
2023-05-09T19:16:21.877Z,49.60
2023-05-09T19:17:54.193Z,51.60
2023-05-09T19:19:26.169Z,56.60
2023-05-09T19:20:58.168Z,71.75
2023-05-09T19:22:30.077Z,81.25
2023-05-09T19:24:04.696Z,84.75
2023-05-09T19:25:37.227Z,87.50
2023-05-09T19:27:09.250Z,91.25
2023-05-09T19:28:41.135Z,89.25
2023-05-09T19:30:15.532Z,100.20
2023-05-09T19:31:47.628Z,97.40
2023-05-09T19:33:19.737Z,111.20
2023-05-09T19:34:51.925Z,102.40
2023-05-09T19:36:23.882Z,108.00
2023-05-09T19:37:55.813Z,117.40
2023-05-09T19:39:29.025Z,96.20
2023-05-09T19:41:00.986Z,128.50
2023-05-09T19:42:33.663Z,120.00
2023-05-09T19:44:07.150Z,124.50
2023-05-09T19:45:39.141Z,116.25
2023-05-09T19:47:11.116Z,129.00
2023-05-09T19:48:43.083Z,124.50
2023-05-09T19:50:15.257Z,129.25
2023-05-09T19:51:47.344Z,138.75
2023-05-09T19:53:19.303Z,146.00
2023-05-09T19:54:51.186Z,150.75
2023-05-09T19:56:23.387Z,148.25
2023-05-09T19:57:55.326Z,125.00
2023-05-09T19:59:27.285Z,147.25
2023-05-09T20:00:59.144Z,138.00
2023-05-09T20:02:31.980Z,147.00
2023-05-09T20:04:04.028Z,143.00
2023-05-09T20:07:24.931Z,152.00
2023-05-09T20:08:56.708Z,147.50
2023-05-09T20:10:30.823Z,153.00
2023-05-09T20:12:03.631Z,154.00
2023-05-09T20:13:35.505Z,143.50
2023-05-09T20:15:08.355Z,139.00
2023-05-09T20:16:40.359Z,124.75
2023-05-09T20:18:12.151Z,159.00
2023-05-09T20:19:43.960Z,134.00
2023-05-09T20:21:15.769Z,129.75
2023-05-09T20:22:47.742Z,142.75
2023-05-09T20:24:20.033Z,163.25
2023-05-09T20:25:51.800Z,136.25
2023-05-09T20:27:23.802Z,146.75
2023-05-09T20:29:01.373Z,170.50
2023-05-09T20:30:33.278Z,154.50
2023-05-09T20:32:05.395Z,181.00
2023-05-09T20:33:37.298Z,200.25
2023-05-09T20:35:09.588Z,162.50
2023-05-09T20:36:42.932Z,164.25
2023-05-09T20:38:14.997Z,161.50
2023-05-09T20:39:46.792Z,174.25
2023-05-09T20:41:18.620Z,181.50
2023-05-09T20:42:50.488Z,165.75
2023-05-09T20:44:22.297Z,161.00
2023-05-09T20:45:54.205Z,153.50
2023-05-09T20:47:26.605Z,134.75
2023-05-09T20:48:58.455Z,152.50
2023-05-09T20:50:30.292Z,148.25
2023-05-09T20:52:02.051Z,144.75
2023-05-09T20:53:35.122Z,160.25
2023-05-09T20:55:07.163Z,143.25
2023-05-09T20:56:38.935Z,138.50
2023-05-09T20:58:14.594Z,138.50
2023-05-09T20:59:46.523Z,146.25
2023-05-09T21:01:18.384Z,142.75
2023-05-09T21:02:50.861Z,134.00
2023-05-09T21:04:23.217Z,132.25
2023-05-09T21:05:55.109Z,136.50
2023-05-09T21:07:26.914Z,115.50
2023-05-09T21:08:58.920Z,112.25
2023-05-09T21:10:30.726Z,116.00
2023-05-09T21:12:04.612Z,116.75
2023-05-09T21:13:37.347Z,111.80
2023-05-09T21:15:09.696Z,113.80
2023-05-09T21:16:44.011Z,100.20
2023-05-09T21:18:15.950Z,108.60
2023-05-09T21:19:51.625Z,112.80
2023-05-09T21:21:23.552Z,105.60
2023-05-09T21:22:55.314Z,103.60
2023-05-09T21:24:27.209Z,100.50
2023-05-09T21:25:59.245Z,94.60
2023-05-09T21:27:31.556Z,101.40
2023-05-09T21:29:03.357Z,87.50
2023-05-09T21:30:35.228Z,91.75
2023-05-09T21:32:07.017Z,82.00
2023-05-09T21:33:38.903Z,82.25
2023-05-09T21:35:12.926Z,77.00
2023-05-09T21:36:44.847Z,82.75
2023-05-09T21:38:16.698Z,75.75
2023-05-09T21:39:48.530Z,80.00
2023-05-09T21:41:22.008Z,76.25
2023-05-09T21:42:53.897Z,75.00
2023-05-09T21:44:25.800Z,77.50
2023-05-09T21:45:57.663Z,73.50
2023-05-09T21:47:29.630Z,73.75
2023-05-09T21:49:01.647Z,68.00
2023-05-09T21:50:33.511Z,68.50
2023-05-09T21:52:05.373Z,74.00
2023-05-09T21:53:37.210Z,68.75
2023-05-09T21:55:09.431Z,68.25
2023-05-09T21:56:42.671Z,67.25
2023-05-09T21:58:14.520Z,68.75
2023-05-09T21:59:46.359Z,74.50
2023-05-09T22:01:18.627Z,69.50
2023-05-09T22:02:50.664Z,68.75
2023-05-09T22:04:22.567Z,66.25
2023-05-09T22:05:54.381Z,67.00
2023-05-09T22:07:26.302Z,64.25
2023-05-09T22:08:58.141Z,57.80
2023-05-09T22:10:29.932Z,62.60
2023-05-09T22:12:01.731Z,56.60
2023-05-09T22:13:33.691Z,69.75
2023-05-09T22:15:06.064Z,73.25
2023-05-09T22:16:38.291Z,80.75
2023-05-09T22:18:11.328Z,79.50
2023-05-09T22:19:43.960Z,81.00
2023-05-09T22:21:15.968Z,78.50
2023-05-09T22:22:47.850Z,86.75
2023-05-09T22:24:19.638Z,81.00
2023-05-09T22:25:51.510Z,80.25
2023-05-09T22:27:23.348Z,83.00
2023-05-09T22:28:55.168Z,76.50
2023-05-09T22:30:27.183Z,77.75
2023-05-09T22:31:59.043Z,73.25
2023-05-09T22:33:31.037Z,78.25
